Time;durP1;ratioP1;P1;durP2;ratioP2;P2;SDS_P1;SDS_P2;PMS_P1;PMS_P2;Temp;Humidity;BMP_temperature;BMP_pressure;BME280_temperature;BME280_humidity;BME280_pressure;Samples;Min_cycle;Max_cycle;Signal;HPM_P1;HPM_P2
2022/06/11 00:01:14;;;;;;;10.53;9.43;;;;;;;;;;5001425;28;20226;-84
2022/06/11 00:03:41;;;;;;;11.63;9.10;;;;;;;;;;5003185;28;20474;-83
2022/06/11 00:06:07;;;;;;;11.37;10.17;;;;;;;;;;5001823;28;21422;-85
2022/06/11 00:08:35;;;;;;;10.80;9.80;;;;;;;;;;5000490;28;20501;-84
2022/06/11 00:11:01;;;;;;;11.23;9.97;;;;;;;;;;5002155;28;20458;-84
2022/06/11 00:13:28;;;;;;;11.97;10.10;;;;;;;;;;5001370;28;21003;-86
2022/06/11 00:15:55;;;;;;;9.10;8.30;;;;;;;;;;5003348;28;20535;-85
2022/06/11 00:18:22;;;;;;;10.10;9.10;;;;;;;;;;5005212;28;20894;-85
2022/06/11 00:20:49;;;;;;;11.00;9.80;;;;;;;;;;5003181;28;20475;-84
2022/06/11 00:23:15;;;;;;;9.00;8.30;;;;;;;;;;5003318;28;20513;-84
2022/06/11 00:25:43;;;;;;;10.03;9.13;;;;;;;;;;4999907;28;20481;-84
2022/06/11 00:28:09;;;;;;;14.67;9.57;;;;;;;;;;5001948;28;20470;-83
2022/06/11 00:30:36;;;;;;;10.27;9.33;;;;;;;;;;5001827;28;20477;-84
2022/06/11 00:33:06;;;;;;;10.43;9.43;;;;;;;;;;5003790;28;20457;-86
2022/06/11 00:35:34;;;;;;;11.00;9.30;;;;;;;;;;5004143;28;20482;-83
2022/06/11 00:38:01;;;;;;;11.27;8.43;;;;;;;;;;5002950;28;20519;-84
2022/06/11 00:40:27;;;;;;;11.17;10.10;;;;;;;;;;5002673;28;20481;-84
2022/06/11 00:42:55;;;;;;;11.23;10.33;;;;;;;;;;5001808;28;20461;-85
2022/06/11 00:45:25;;;;;;;9.33;8.43;;;;;;;;;;5005845;28;20524;-83
2022/06/11 00:47:53;;;;;;;10.63;9.53;;;;;;;;;;5010184;28;20510;-84
2022/06/11 00:50:21;;;;;;;11.13;10.13;;;;;;;;;;5010579;28;20494;-85
2022/06/11 00:52:48;;;;;;;10.90;9.90;;;;;;;;;;5012514;28;20461;-86
2022/06/11 00:55:17;;;;;;;12.00;10.17;;;;;;;;;;5010870;28;20539;-85
2022/06/11 00:57:44;;;;;;;12.97;10.10;;;;;;;;;;5011272;28;20463;-83
2022/06/11 01:00:15;;;;;;;11.20;9.40;;;;;;;;;;5011027;28;20486;-85
2022/06/11 01:02:42;;;;;;;11.43;9.83;;;;;;;;;;5015265;28;20475;-84
2022/06/11 01:05:08;;;;;;;9.93;8.97;;;;;;;;;;5016538;28;20481;-84
2022/06/11 01:07:46;;;;;;;11.67;10.40;;;;;;;;;;5015388;28;20474;-85
2022/06/11 01:10:21;;;;;;;11.67;9.67;;;;;;;;;;5014182;28;20509;-88
2022/06/11 01:12:52;;;;;;;11.93;10.70;;;;;;;;;;5016579;28;20457;-84
2022/06/11 01:15:21;;;;;;;11.50;10.33;;;;;;;;;;5011140;28;20901;-84
2022/06/11 01:17:53;;;;;;;11.77;10.67;;;;;;;;;;5013436;28;20508;-84
2022/06/11 01:20:30;;;;;;;12.47;10.90;;;;;;;;;;5012648;28;20515;-83
2022/06/11 01:23:14;;;;;;;12.40;11.10;;;;;;;;;;5014249;28;20485;-85
2022/06/11 01:25:46;;;;;;;11.00;9.80;;;;;;;;;;4981764;28;20866;-84
2022/06/11 01:28:26;;;;;;;11.90;10.63;;;;;;;;;;5013869;28;20453;-84
2022/06/11 01:30:55;;;;;;;11.50;10.30;;;;;;;;;;5011799;28;20473;-85
2022/06/11 01:33:23;;;;;;;12.23;10.87;;;;;;;;;;5011201;28;20458;-85
2022/06/11 01:35:55;;;;;;;12.33;11.00;;;;;;;;;;5012604;28;20485;-84
2022/06/11 01:38:25;;;;;;;11.87;9.80;;;;;;;;;;5010954;28;20477;-85
2022/06/11 01:40:52;;;;;;;10.40;9.50;;;;;;;;;;5011661;28;20513;-84
2022/06/11 01:43:21;;;;;;;11.10;10.13;;;;;;;;;;5011024;28;20501;-86
2022/06/11 01:45:48;;;;;;;13.40;11.90;;;;;;;;;;5012798;28;20485;-84
2022/06/11 01:48:18;;;;;;;13.27;11.97;;;;;;;;;;5012892;28;20473;-84
2022/06/11 01:50:51;;;;;;;13.60;11.67;;;;;;;;;;5010179;28;20562;-84
2022/06/11 01:53:25;;;;;;;13.03;10.80;;;;;;;;;;5014307;28;20453;-84
2022/06/11 01:55:59;;;;;;;12.37;10.93;;;;;;;;;;5012588;28;20472;-84
2022/06/11 01:58:31;;;;;;;12.20;11.00;;;;;;;;;;5009067;28;21039;-85
2022/06/11 02:01:01;;;;;;;12.67;11.53;;;;;;;;;;5009256;28;21009;-84
2022/06/11 02:03:31;;;;;;;11.47;10.37;;;;;;;;;;5010304;28;20457;-85
2022/06/11 02:06:05;;;;;;;16.00;12.33;;;;;;;;;;5010211;28;20542;-85
2022/06/11 02:08:35;;;;;;;13.23;11.70;;;;;;;;;;5010468;28;20477;-84
2022/06/11 02:11:04;;;;;;;14.23;12.83;;;;;;;;;;5010775;28;20906;-84
2022/06/11 02:13:32;;;;;;;14.93;13.53;;;;;;;;;;5009564;28;20459;-84
2022/06/11 02:16:00;;;;;;;15.37;13.33;;;;;;;;;;5010413;28;20552;-84
2022/06/11 02:18:28;;;;;;;16.40;13.67;;;;;;;;;;5008499;28;20542;-85
2022/06/11 02:20:57;;;;;;;14.30;12.40;;;;;;;;;;5008681;28;20482;-84
2022/06/11 02:23:26;;;;;;;14.43;13.00;;;;;;;;;;5007890;28;20975;-84
2022/06/11 02:25:53;;;;;;;16.93;11.93;;;;;;;;;;5009354;28;20481;-84
2022/06/11 02:28:22;;;;;;;12.77;11.47;;;;;;;;;;5009046;28;20489;-86
2022/06/11 02:30:49;;;;;;;14.10;12.70;;;;;;;;;;5009069;28;20881;-85
2022/06/11 02:33:17;;;;;;;15.37;12.97;;;;;;;;;;5010320;28;20468;-85
2022/06/11 02:35:46;;;;;;;17.20;13.30;;;;;;;;;;5006859;28;20478;-83
2022/06/11 02:38:15;;;;;;;13.83;12.00;;;;;;;;;;5009418;28;20975;-84
2022/06/11 02:40:44;;;;;;;22.90;13.60;;;;;;;;;;5008403;28;20477;-83
2022/06/11 02:43:10;;;;;;;13.40;12.20;;;;;;;;;;5008824;28;20489;-85
2022/06/11 02:45:37;;;;;;;16.57;12.90;;;;;;;;;;5006866;28;20481;-84
2022/06/11 02:48:03;;;;;;;13.57;12.17;;;;;;;;;;5009944;28;20963;-84
2022/06/11 02:50:31;;;;;;;13.37;12.07;;;;;;;;;;5007388;28;20513;-84
2022/06/11 02:52:58;;;;;;;16.60;12.40;;;;;;;;;;5009237;28;20493;-84
2022/06/11 02:55:27;;;;;;;16.30;13.83;;;;;;;;;;5004347;28;20501;-85
2022/06/11 02:57:54;;;;;;;16.87;12.37;;;;;;;;;;5006310;28;20469;-84
2022/06/11 03:00:21;;;;;;;14.70;13.37;;;;;;;;;;5007127;28;20517;-85
2022/06/11 03:02:48;;;;;;;15.67;14.07;;;;;;;;;;5008403;28;20481;-84
2022/06/11 03:05:15;;;;;;;17.53;14.50;;;;;;;;;;5006539;28;21247;-84
2022/06/11 03:07:41;;;;;;;17.57;14.20;;;;;;;;;;5008195;28;20505;-84
2022/06/11 03:10:08;;;;;;;16.13;14.43;;;;;;;;;;5008179;28;20477;-84
2022/06/11 03:12:36;;;;;;;15.67;13.90;;;;;;;;;;5004831;28;20966;-83
2022/06/11 03:15:03;;;;;;;16.87;15.13;;;;;;;;;;5008297;28;20485;-84
2022/06/11 03:17:29;;;;;;;19.10;15.47;;;;;;;;;;5009147;28;20943;-84
2022/06/11 03:19:55;;;;;;;19.60;16.10;;;;;;;;;;5005989;28;20490;-83
2022/06/11 03:22:22;;;;;;;20.50;15.93;;;;;;;;;;5010232;28;20552;-84
2022/06/11 03:24:48;;;;;;;18.60;16.70;;;;;;;;;;5007767;28;20514;-83
2022/06/11 03:27:15;;;;;;;19.83;17.77;;;;;;;;;;5007648;28;20461;-85
2022/06/11 03:29:43;;;;;;;24.30;19.60;;;;;;;;;;5002621;28;21008;-83
2022/06/11 03:32:09;;;;;;;23.83;18.13;;;;;;;;;;5005166;28;20462;-83
2022/06/11 03:34:36;;;;;;;21.00;17.67;;;;;;;;;;5007314;28;20479;-84
2022/06/11 03:37:02;;;;;;;18.77;17.00;;;;;;;;;;5007111;28;20553;-83
2022/06/11 03:39:29;;;;;;;19.50;17.43;;;;;;;;;;5006391;28;20541;-83
2022/06/11 03:41:55;;;;;;;23.70;17.90;;;;;;;;;;5004689;28;20520;-85
2022/06/11 03:44:22;;;;;;;21.30;18.07;;;;;;;;;;5004348;28;20486;-83
2022/06/11 03:46:49;;;;;;;19.67;17.47;;;;;;;;;;5004795;28;20465;-84
2022/06/11 03:49:16;;;;;;;18.10;16.50;;;;;;;;;;5006675;28;20500;-86
2022/06/11 03:51:42;;;;;;;17.80;15.87;;;;;;;;;;5005626;28;20489;-85
2022/06/11 03:54:09;;;;;;;19.87;17.43;;;;;;;;;;5006717;28;20474;-83
2022/06/11 03:56:35;;;;;;;19.50;17.47;;;;;;;;;;5004692;28;20467;-84
2022/06/11 03:59:02;;;;;;;19.13;16.70;;;;;;;;;;5006088;28;20571;-84
2022/06/11 04:01:28;;;;;;;20.30;17.73;;;;;;;;;;5004423;28;20516;-84
2022/06/11 04:03:58;;;;;;;19.50;17.60;;;;;;;;;;5006644;28;21044;-84
2022/06/11 04:06:26;;;;;;;19.60;17.70;;;;;;;;;;5005936;28;20960;-86
2022/06/11 04:08:53;;;;;;;20.50;16.80;;;;;;;;;;5004895;28;20470;-85
2022/06/11 04:11:19;;;;;;;20.63;18.27;;;;;;;;;;5021187;23;20997;-86
2022/06/11 04:13:46;;;;;;;22.83;16.90;;;;;;;;;;4987244;28;20541;-86
2022/06/11 04:16:19;;;;;;;20.00;17.87;;;;;;;;;;4983611;28;20466;-88
2022/06/11 04:18:47;;;;;;;18.80;16.73;;;;;;;;;;4987307;28;20471;-87
2022/06/11 04:21:16;;;;;;;21.73;18.80;;;;;;;;;;4988054;28;21074;-86
2022/06/11 04:23:44;;;;;;;23.60;17.73;;;;;;;;;;4987720;28;21054;-86
2022/06/11 04:26:12;;;;;;;22.50;18.60;;;;;;;;;;4985910;28;20474;-87
2022/06/11 04:28:38;;;;;;;18.83;16.93;;;;;;;;;;4985634;28;20462;-87
2022/06/11 04:31:06;;;;;;;24.43;17.67;;;;;;;;;;4990154;28;21026;-87
2022/06/11 04:33:32;;;;;;;22.33;19.93;;;;;;;;;;4998784;28;20451;-86
2022/06/11 04:35:58;;;;;;;25.37;18.87;;;;;;;;;;4983917;28;20462;-86
2022/06/11 04:38:26;;;;;;;29.87;21.17;;;;;;;;;;4983955;28;20467;-86
2022/06/11 04:40:53;;;;;;;22.73;19.40;;;;;;;;;;4981785;28;20582;-87
2022/06/11 04:43:20;;;;;;;20.97;18.70;;;;;;;;;;4979799;28;20501;-86
2022/06/11 04:45:46;;;;;;;19.87;17.47;;;;;;;;;;4983637;28;20590;-86
2022/06/11 04:48:13;;;;;;;25.37;18.07;;;;;;;;;;4981642;28;20463;-86
2022/06/11 04:50:39;;;;;;;19.83;17.90;;;;;;;;;;4979236;28;20902;-86
2022/06/11 04:53:06;;;;;;;18.93;17.13;;;;;;;;;;4983041;28;20466;-86
2022/06/11 04:55:33;;;;;;;26.30;19.00;;;;;;;;;;4982669;28;21245;-86
2022/06/11 04:58:00;;;;;;;21.97;18.83;;;;;;;;;;4980825;28;20900;-86
2022/06/11 05:00:27;;;;;;;23.47;18.60;;;;;;;;;;4981594;28;20490;-85
2022/06/11 05:02:54;;;;;;;25.07;19.20;;;;;;;;;;4981345;28;20490;-86
2022/06/11 05:05:21;;;;;;;25.80;19.70;;;;;;;;;;4981133;28;20492;-86
2022/06/11 05:07:47;;;;;;;21.30;19.00;;;;;;;;;;4980361;28;20466;-86
2022/06/11 05:10:15;;;;;;;24.40;19.17;;;;;;;;;;4982135;28;20474;-86
2022/06/11 05:12:43;;;;;;;23.23;19.63;;;;;;;;;;4982137;28;21019;-87
2022/06/11 05:15:10;;;;;;;20.80;18.47;;;;;;;;;;4978839;28;20491;-85
2022/06/11 05:17:37;;;;;;;21.90;19.60;;;;;;;;;;4982682;28;20466;-86
2022/06/11 05:20:03;;;;;;;20.33;16.97;;;;;;;;;;4980862;28;20901;-86
2022/06/11 05:22:29;;;;;;;22.73;17.60;;;;;;;;;;4981382;28;20680;-86
2022/06/11 05:24:56;;;;;;;20.33;18.10;;;;;;;;;;4978895;28;21074;-86
2022/06/11 05:27:23;;;;;;;22.20;18.47;;;;;;;;;;4982536;28;20441;-86
2022/06/11 05:29:52;;;;;;;23.70;17.70;;;;;;;;;;4982358;28;20467;-85
2022/06/11 05:32:19;;;;;;;22.30;18.90;;;;;;;;;;4982834;28;20574;-86
2022/06/11 05:34:46;;;;;;;24.80;18.90;;;;;;;;;;4984185;28;20486;-86
2022/06/11 05:37:12;;;;;;;21.10;19.07;;;;;;;;;;4981544;28;20463;-87
2022/06/11 05:39:39;;;;;;;29.27;20.17;;;;;;;;;;4983506;28;20501;-86
2022/06/11 05:42:06;;;;;;;21.87;19.37;;;;;;;;;;4984148;28;20514;-86
2022/06/11 05:44:32;;;;;;;24.87;19.10;;;;;;;;;;4985903;28;20516;-85
2022/06/11 05:47:00;;;;;;;24.50;18.70;;;;;;;;;;4985697;28;20470;-86
2022/06/11 05:49:28;;;;;;;25.73;19.50;;;;;;;;;;4982208;28;20493;-86
2022/06/11 05:51:55;;;;;;;22.67;19.13;;;;;;;;;;4985495;28;20549;-86
2022/06/11 05:54:23;;;;;;;20.70;18.57;;;;;;;;;;4985126;28;20479;-85
2022/06/11 05:56:50;;;;;;;27.23;19.30;;;;;;;;;;4985201;28;20521;-86
2022/06/11 05:59:18;;;;;;;22.60;17.80;;;;;;;;;;4983161;28;20949;-87
2022/06/11 06:01:45;;;;;;;19.00;16.17;;;;;;;;;;4989549;28;20491;-87
2022/06/11 06:04:13;;;;;;;18.80;16.87;;;;;;;;;;4988851;28;20474;-85
2022/06/11 06:06:39;;;;;;;18.90;15.80;;;;;;;;;;4985156;28;20454;-86
2022/06/11 06:09:06;;;;;;;18.67;15.90;;;;;;;;;;4984367;28;21050;-86
2022/06/11 06:11:32;;;;;;;17.37;14.00;;;;;;;;;;4984196;28;20486;-87
2022/06/11 06:13:59;;;;;;;21.67;14.37;;;;;;;;;;4988025;28;20488;-85
2022/06/11 06:16:27;;;;;;;17.30;11.93;;;;;;;;;;4985262;28;20479;-86
2022/06/11 06:18:55;;;;;;;16.17;9.67;;;;;;;;;;4988057;28;20566;-87
2022/06/11 06:21:24;;;;;;;16.20;10.00;;;;;;;;;;4985062;28;20475;-86
2022/06/11 06:23:50;;;;;;;17.00;9.20;;;;;;;;;;4979212;28;20512;-86
2022/06/11 06:26:16;;;;;;;12.20;8.27;;;;;;;;;;4984371;28;20835;-86
2022/06/11 06:28:43;;;;;;;12.47;8.60;;;;;;;;;;4984283;28;20473;-87
2022/06/11 06:31:10;;;;;;;10.50;8.97;;;;;;;;;;4983063;28;20554;-85
2022/06/11 06:33:36;;;;;;;11.03;7.30;;;;;;;;;;4985406;28;21347;-86
2022/06/11 06:36:05;;;;;;;7.67;6.87;;;;;;;;;;4986277;28;20451;-85
2022/06/11 06:38:33;;;;;;;11.00;6.07;;;;;;;;;;4991603;28;20629;-86
2022/06/11 06:41:00;;;;;;;10.73;5.37;;;;;;;;;;4976707;28;20482;-84
2022/06/11 06:43:26;;;;;;;9.40;5.00;;;;;;;;;;4988274;28;20494;-83
2022/06/11 06:45:52;;;;;;;7.97;5.13;;;;;;;;;;4990262;28;21007;-84
2022/06/11 06:48:19;;;;;;;8.50;5.10;;;;;;;;;;4986299;28;20456;-86
2022/06/11 06:50:46;;;;;;;8.67;6.23;;;;;;;;;;4987097;28;20470;-84
2022/06/11 06:53:12;;;;;;;10.00;5.50;;;;;;;;;;4983518;28;20502;-85
2022/06/11 06:55:40;;;;;;;8.97;6.07;;;;;;;;;;4983382;28;20875;-84
2022/06/11 06:58:06;;;;;;;7.47;5.60;;;;;;;;;;4989577;28;20447;-86
2022/06/11 07:00:33;;;;;;;8.70;5.90;;;;;;;;;;4989347;28;20474;-87
2022/06/11 07:02:59;;;;;;;12.03;5.73;;;;;;;;;;4989531;28;21011;-86
2022/06/11 07:05:26;;;;;;;6.57;5.43;;;;;;;;;;4989818;28;20514;-86
2022/06/11 07:07:52;;;;;;;6.43;5.10;;;;;;;;;;4989186;28;20884;-84
2022/06/11 07:10:19;;;;;;;5.33;4.80;;;;;;;;;;4986812;28;20564;-85
2022/06/11 07:12:47;;;;;;;5.73;5.20;;;;;;;;;;4994569;28;20489;-86
2022/06/11 07:15:13;;;;;;;5.90;4.80;;;;;;;;;;4989693;28;20479;-84
2022/06/11 07:17:41;;;;;;;6.93;5.10;;;;;;;;;;4989500;28;20479;-85
2022/06/11 07:20:12;;;;;;;10.03;4.83;;;;;;;;;;4991629;28;20537;-88
2022/06/11 07:22:39;;;;;;;6.10;4.60;;;;;;;;;;4986870;28;20537;-84
2022/06/11 07:25:07;;;;;;;6.70;4.90;;;;;;;;;;4989562;28;20482;-87
2022/06/11 07:27:34;;;;;;;6.57;5.63;;;;;;;;;;4997148;28;20462;-85
2022/06/11 07:30:04;;;;;;;5.80;4.70;;;;;;;;;;4989778;28;20495;-85
2022/06/11 07:32:35;;;;;;;7.67;5.13;;;;;;;;;;4990090;28;20455;-85
2022/06/11 07:35:01;;;;;;;12.13;5.30;;;;;;;;;;4988452;28;21094;-86
2022/06/11 07:37:27;;;;;;;8.40;5.10;;;;;;;;;;4990328;28;20467;-84
2022/06/11 07:39:54;;;;;;;7.37;4.57;;;;;;;;;;4991365;28;20476;-85
2022/06/11 07:42:20;;;;;;;6.80;5.30;;;;;;;;;;4992521;28;20478;-85
2022/06/11 07:44:46;;;;;;;9.40;5.23;;;;;;;;;;4991836;28;20467;-87
2022/06/11 07:47:14;;;;;;;11.27;5.70;;;;;;;;;;4993440;28;20454;-86
2022/06/11 07:49:40;;;;;;;7.37;5.33;;;;;;;;;;4992025;28;20534;-86
2022/06/11 07:52:06;;;;;;;9.60;5.47;;;;;;;;;;4994889;28;20479;-85
2022/06/11 07:54:33;;;;;;;10.23;5.10;;;;;;;;;;4990044;28;20498;-85
2022/06/11 07:56:59;;;;;;;12.03;5.70;;;;;;;;;;4990508;28;20936;-87
2022/06/11 07:59:26;;;;;;;7.83;6.03;;;;;;;;;;4988311;28;20503;-86
2022/06/11 08:01:52;;;;;;;9.53;6.43;;;;;;;;;;4988606;28;20514;-87
2022/06/11 08:04:20;;;;;;;9.97;5.97;;;;;;;;;;4987404;28;20540;-86
2022/06/11 08:06:46;;;;;;;13.87;5.70;;;;;;;;;;4987913;28;20462;-86
2022/06/11 08:09:12;;;;;;;10.70;5.50;;;;;;;;;;4988084;28;20479;-86
2022/06/11 08:11:40;;;;;;;9.83;5.60;;;;;;;;;;4987384;28;20490;-85
2022/06/11 08:14:06;;;;;;;7.87;5.90;;;;;;;;;;4989887;28;20497;-87
2022/06/11 08:16:33;;;;;;;6.33;5.30;;;;;;;;;;4994806;28;20513;-88
2022/06/11 08:18:59;;;;;;;8.67;5.73;;;;;;;;;;4985852;28;21047;-84
2022/06/11 08:21:27;;;;;;;8.90;6.77;;;;;;;;;;4990689;28;20549;-85
2022/06/11 08:23:53;;;;;;;9.70;5.63;;;;;;;;;;4997595;28;20493;-86
2022/06/11 08:26:19;;;;;;;9.93;5.50;;;;;;;;;;4998277;28;20443;-85
2022/06/11 08:28:46;;;;;;;8.17;5.50;;;;;;;;;;4992771;28;20462;-84
2022/06/11 08:31:12;;;;;;;14.47;7.10;;;;;;;;;;4989884;28;20486;-84
2022/06/11 08:33:38;;;;;;;9.53;5.90;;;;;;;;;;4994254;28;20447;-83
2022/06/11 08:36:05;;;;;;;9.83;6.00;;;;;;;;;;4985742;28;20455;-85
2022/06/11 08:38:32;;;;;;;10.53;6.00;;;;;;;;;;4988479;28;20467;-85
2022/06/11 08:40:59;;;;;;;9.77;6.30;;;;;;;;;;4988620;28;20482;-86
2022/06/11 08:43:27;;;;;;;9.23;5.70;;;;;;;;;;4985907;28;20502;-88
2022/06/11 08:45:54;;;;;;;8.37;5.33;;;;;;;;;;4986922;28;20478;-86
2022/06/11 08:48:25;;;;;;;9.43;4.63;;;;;;;;;;4987115;28;20462;-84
2022/06/11 08:50:56;;;;;;;10.70;5.17;;;;;;;;;;4982371;28;20487;-85
2022/06/11 08:53:22;;;;;;;7.17;5.03;;;;;;;;;;4992667;28;20458;-85
2022/06/11 08:55:50;;;;;;;8.60;6.07;;;;;;;;;;4991607;28;20473;-85
2022/06/11 08:58:22;;;;;;;9.43;4.53;;;;;;;;;;4994300;28;20477;-84
2022/06/11 09:00:52;;;;;;;9.97;4.87;;;;;;;;;;4987639;28;21240;-87
2022/06/11 09:03:29;;;;;;;12.10;6.57;;;;;;;;;;4987055;28;20478;-86
2022/06/11 09:06:02;;;;;;;12.03;5.10;;;;;;;;;;4989786;28;20477;-85
2022/06/11 09:08:37;;;;;;;8.97;5.13;;;;;;;;;;4990684;28;20462;-85
2022/06/11 09:11:12;;;;;;;15.00;5.90;;;;;;;;;;4993500;28;20470;-86
2022/06/11 09:13:52;;;;;;;10.60;4.93;;;;;;;;;;4993590;28;20829;-85
2022/06/11 09:16:24;;;;;;;10.50;5.07;;;;;;;;;;4992052;28;20488;-84
2022/06/11 09:18:56;;;;;;;14.73;5.20;;;;;;;;;;4990225;28;20473;-83
2022/06/11 09:21:26;;;;;;;11.63;5.40;;;;;;;;;;4988529;28;20463;-84
2022/06/11 09:24:23;;;;;;;9.13;5.00;;;;;;;;;;4989759;28;20482;-84
2022/06/11 09:26:54;;;;;;;11.10;4.93;;;;;;;;;;4908704;29;20877;-84
2022/06/11 09:29:28;;;;;;;12.73;4.03;;;;;;;;;;4972434;28;20479;-86
2022/06/11 09:32:01;;;;;;;10.43;4.90;;;;;;;;;;4989685;28;20474;-85
2022/06/11 09:34:31;;;;;;;8.50;4.70;;;;;;;;;;4988114;28;20855;-83
2022/06/11 09:37:01;;;;;;;7.67;4.60;;;;;;;;;;4991864;28;20983;-85
2022/06/11 09:39:41;;;;;;;10.97;4.40;;;;;;;;;;4989106;28;20477;-83
2022/06/11 09:42:28;;;;;;;12.13;4.80;;;;;;;;;;4989927;28;20862;-84
2022/06/11 09:45:01;;;;;;;13.10;4.17;;;;;;;;;;4954359;28;20479;-84
2022/06/11 09:47:31;;;;;;;10.00;4.40;;;;;;;;;;4991678;28;20470;-82
2022/06/11 09:50:02;;;;;;;12.60;4.30;;;;;;;;;;4988071;28;20477;-84
2022/06/11 09:52:32;;;;;;;16.03;4.90;;;;;;;;;;4988288;28;20521;-83
2022/06/11 09:55:15;;;;;;;10.23;3.80;;;;;;;;;;4990557;28;20470;-84
2022/06/11 09:57:45;;;;;;;13.70;4.60;;;;;;;;;;4989366;28;20463;-84
2022/06/11 10:00:16;;;;;;;7.17;3.50;;;;;;;;;;4989134;28;21034;-85
2022/06/11 10:02:48;;;;;;;19.13;5.80;;;;;;;;;;4988660;28;20491;-84
2022/06/11 10:05:16;;;;;;;8.87;3.97;;;;;;;;;;4985674;28;20562;-81
2022/06/11 10:07:45;;;;;;;18.00;4.30;;;;;;;;;;4987879;28;20470;-83
2022/06/11 10:10:13;;;;;;;10.43;4.20;;;;;;;;;;4986163;28;20473;-83
2022/06/11 10:12:41;;;;;;;14.33;4.57;;;;;;;;;;5023266;23;20512;-81
2022/06/11 10:15:12;;;;;;;9.93;4.70;;;;;;;;;;5023587;28;20481;-80
2022/06/11 10:17:44;;;;;;;9.50;4.33;;;;;;;;;;5023239;28;20462;-82
2022/06/11 10:20:14;;;;;;;9.63;4.70;;;;;;;;;;5022884;28;20592;-82
2022/06/11 10:22:43;;;;;;;8.30;3.83;;;;;;;;;;5018082;28;21219;-82
2022/06/11 10:25:19;;;;;;;11.83;4.00;;;;;;;;;;5003719;28;20481;-79
2022/06/11 10:27:48;;;;;;;16.40;4.63;;;;;;;;;;5004282;28;20457;-80
2022/06/11 10:30:20;;;;;;;9.70;3.60;;;;;;;;;;5004665;28;20486;-79
2022/06/11 10:32:48;;;;;;;16.30;4.73;;;;;;;;;;5004705;28;20987;-78
2022/06/11 10:35:17;;;;;;;7.97;3.70;;;;;;;;;;5004001;28;20482;-78
2022/06/11 10:37:46;;;;;;;11.20;4.27;;;;;;;;;;5004728;28;20469;-81
2022/06/11 10:40:21;;;;;;;10.80;4.10;;;;;;;;;;5002971;28;20895;-81
2022/06/11 10:42:50;;;;;;;10.80;3.80;;;;;;;;;;5005652;28;20485;-80
2022/06/11 10:45:17;;;;;;;11.30;3.70;;;;;;;;;;5004283;28;20492;-81
2022/06/11 10:47:45;;;;;;;9.13;4.37;;;;;;;;;;5003658;28;20466;-82
2022/06/11 10:50:19;;;;;;;12.73;4.40;;;;;;;;;;5004742;28;20537;-80
2022/06/11 10:52:47;;;;;;;12.67;3.80;;;;;;;;;;5003800;28;21045;-80
2022/06/11 10:55:17;;;;;;;12.80;4.17;;;;;;;;;;5002481;28;20481;-79
2022/06/11 10:57:44;;;;;;;11.03;4.63;;;;;;;;;;5004702;28;20462;-81
2022/06/11 11:00:17;;;;;;;18.50;4.87;;;;;;;;;;5004232;28;20486;-81
2022/06/11 11:02:46;;;;;;;9.30;3.80;;;;;;;;;;5004711;28;20493;-80
2022/06/11 11:05:13;;;;;;;7.80;3.97;;;;;;;;;;5004848;28;20850;-81
2022/06/11 11:07:46;;;;;;;11.63;3.43;;;;;;;;;;5004324;28;20482;-81
2022/06/11 11:10:21;;;;;;;8.13;3.97;;;;;;;;;;5004374;28;20533;-77
2022/06/11 11:12:47;;;;;;;12.30;4.30;;;;;;;;;;5002858;28;20498;-81
2022/06/11 11:15:15;;;;;;;10.87;3.93;;;;;;;;;;5003588;28;20912;-81
2022/06/11 11:17:45;;;;;;;8.50;3.77;;;;;;;;;;5005102;28;20453;-81
2022/06/11 11:20:32;;;;;;;12.63;3.77;;;;;;;;;;5002920;28;20489;-80
2022/06/11 11:23:01;;;;;;;7.53;3.10;;;;;;;;;;5004248;28;20500;-80
2022/06/11 11:25:30;;;;;;;10.33;3.97;;;;;;;;;;5004111;28;20577;-79
2022/06/11 11:27:57;;;;;;;10.60;3.60;;;;;;;;;;5004281;28;20566;-79
2022/06/11 11:30:28;;;;;;;11.97;4.50;;;;;;;;;;5003474;28;20486;-81
2022/06/11 11:32:54;;;;;;;9.87;3.30;;;;;;;;;;5005090;28;20575;-83
2022/06/11 11:35:22;;;;;;;11.60;3.90;;;;;;;;;;5003708;28;20475;-82
2022/06/11 11:37:57;;;;;;;9.07;3.33;;;;;;;;;;5002777;28;20462;-80
2022/06/11 11:40:26;;;;;;;7.70;3.27;;;;;;;;;;5004557;28;20490;-82
2022/06/11 11:42:54;;;;;;;12.93;4.20;;;;;;;;;;5004057;28;20489;-81
2022/06/11 11:45:21;;;;;;;14.47;4.00;;;;;;;;;;5003553;28;20913;-81
2022/06/11 11:47:48;;;;;;;12.20;4.50;;;;;;;;;;5003299;28;20462;-81
2022/06/11 11:50:20;;;;;;;8.73;3.77;;;;;;;;;;5003935;28;20481;-81
2022/06/11 11:52:47;;;;;;;8.70;3.77;;;;;;;;;;5003675;28;20508;-80
2022/06/11 11:55:17;;;;;;;10.03;3.47;;;;;;;;;;5002179;28;20501;-81
2022/06/11 11:57:49;;;;;;;7.83;3.17;;;;;;;;;;5004909;28;20528;-81
2022/06/11 12:00:25;;;;;;;9.70;3.70;;;;;;;;;;5002043;28;20596;-80
2022/06/11 12:02:54;;;;;;;7.80;3.70;;;;;;;;;;5002745;28;20493;-81
2022/06/11 12:05:22;;;;;;;10.07;3.77;;;;;;;;;;5004554;28;20482;-81
2022/06/11 12:07:50;;;;;;;8.50;3.47;;;;;;;;;;5004494;28;20497;-81
2022/06/11 12:10:21;;;;;;;12.77;3.53;;;;;;;;;;5002906;28;20532;-78
2022/06/11 12:12:51;;;;;;;10.57;3.97;;;;;;;;;;5004015;28;20496;-81
2022/06/11 12:15:20;;;;;;;8.17;3.47;;;;;;;;;;5003536;28;20483;-79
2022/06/11 12:17:49;;;;;;;13.57;4.67;;;;;;;;;;5004283;28;20450;-81
2022/06/11 12:20:18;;;;;;;13.27;3.63;;;;;;;;;;5004243;28;20530;-80
2022/06/11 12:22:47;;;;;;;13.30;3.93;;;;;;;;;;5004204;28;20887;-80
2022/06/11 12:25:20;;;;;;;7.87;3.00;;;;;;;;;;5004663;28;20494;-81
2022/06/11 12:27:48;;;;;;;8.87;3.47;;;;;;;;;;5003635;28;20470;-81
2022/06/11 12:30:18;;;;;;;11.67;4.73;;;;;;;;;;5004322;28;20513;-81
2022/06/11 12:32:44;;;;;;;8.97;3.23;;;;;;;;;;5004677;28;20837;-81
2022/06/11 12:35:15;;;;;;;9.80;4.10;;;;;;;;;;5003327;28;20521;-79
2022/06/11 12:37:44;;;;;;;10.23;5.20;;;;;;;;;;5004679;28;20473;-80
2022/06/11 12:40:20;;;;;;;10.97;4.30;;;;;;;;;;5002190;28;20473;-79
2022/06/11 12:42:49;;;;;;;9.97;3.70;;;;;;;;;;5003611;28;20485;-80
2022/06/11 12:45:23;;;;;;;9.13;4.10;;;;;;;;;;5005060;28;20537;-83
2022/06/11 12:47:55;;;;;;;10.40;3.50;;;;;;;;;;5004277;28;20539;-81
2022/06/11 12:50:25;;;;;;;10.97;4.10;;;;;;;;;;5003674;28;20481;-81
2022/06/11 12:52:55;;;;;;;10.30;3.77;;;;;;;;;;5005101;28;20482;-81
2022/06/11 12:55:31;;;;;;;9.13;4.67;;;;;;;;;;5004227;28;20479;-82
2022/06/11 12:58:01;;;;;;;10.27;3.40;;;;;;;;;;5004812;28;20457;-81
2022/06/11 13:00:42;;;;;;;7.83;3.07;;;;;;;;;;5002738;28;20490;-81
2022/06/11 13:03:24;;;;;;;14.80;4.20;;;;;;;;;;5002226;28;20535;-81
2022/06/11 13:06:02;;;;;;;10.90;4.40;;;;;;;;;;5004936;28;20482;-80
2022/06/11 13:08:44;;;;;;;7.60;3.00;;;;;;;;;;5003917;28;20898;-80
2022/06/11 13:11:15;;;;;;;11.07;3.30;;;;;;;;;;5001584;28;20549;-81
2022/06/11 13:13:49;;;;;;;14.13;3.53;;;;;;;;;;5003860;28;20490;-80
2022/06/11 13:16:19;;;;;;;8.90;3.20;;;;;;;;;;5005236;28;20457;-80
2022/06/11 13:18:54;;;;;;;9.30;3.80;;;;;;;;;;5003348;28;20469;-81
2022/06/11 13:21:26;;;;;;;10.03;3.70;;;;;;;;;;5005689;28;20466;-83
2022/06/11 13:23:59;;;;;;;14.83;3.87;;;;;;;;;;5003559;28;20465;-79
2022/06/11 13:26:31;;;;;;;16.03;4.30;;;;;;;;;;5005727;28;20478;-80
2022/06/11 13:29:07;;;;;;;12.13;3.20;;;;;;;;;;5005414;28;20461;-79
2022/06/11 13:31:37;;;;;;;10.43;3.30;;;;;;;;;;5004069;28;20474;-79
2022/06/11 13:34:09;;;;;;;14.83;4.03;;;;;;;;;;5004071;28;20889;-78
2022/06/11 13:36:41;;;;;;;11.80;3.53;;;;;;;;;;5005399;28;20552;-82
2022/06/11 13:39:18;;;;;;;10.73;3.10;;;;;;;;;;5005619;28;20473;-82
2022/06/11 13:41:50;;;;;;;8.40;3.07;;;;;;;;;;5002668;28;20961;-81
2022/06/11 13:44:25;;;;;;;8.27;2.90;;;;;;;;;;5003404;28;20485;-80
2022/06/11 13:46:56;;;;;;;13.20;4.17;;;;;;;;;;5001737;28;20458;-83
2022/06/11 13:49:37;;;;;;;9.50;3.33;;;;;;;;;;4999070;28;20561;-79
2022/06/11 13:52:05;;;;;;;8.73;3.50;;;;;;;;;;5002924;28;20477;-79
2022/06/11 13:57:44;;;;;;;9.03;3.30;;;;;;;;;;4999515;28;20440;-79
2022/06/11 14:00:20;;;;;;;7.90;2.70;;;;;;;;;;4999416;28;20486;-82
2022/06/11 14:03:02;;;;;;;12.87;3.57;;;;;;;;;;5002106;28;20485;-81
2022/06/11 14:05:31;;;;;;;15.30;4.10;;;;;;;;;;5004566;28;20477;-81
2022/06/11 14:07:58;;;;;;;8.83;3.87;;;;;;;;;;5005684;28;20859;-80
2022/06/11 14:10:30;;;;;;;11.20;3.33;;;;;;;;;;5003945;28;20527;-80
2022/06/11 14:12:57;;;;;;;9.17;3.47;;;;;;;;;;5005732;28;20493;-80
2022/06/11 14:15:26;;;;;;;7.63;2.90;;;;;;;;;;5002429;28;20477;-80
2022/06/11 14:17:54;;;;;;;10.27;3.27;;;;;;;;;;5002692;28;20478;-81
2022/06/11 14:20:22;;;;;;;8.37;2.80;;;;;;;;;;5004313;28;20547;-80
2022/06/11 14:22:52;;;;;;;4.40;2.40;;;;;;;;;;5002293;28;20525;-82
2022/06/11 14:25:36;;;;;;;9.70;3.03;;;;;;;;;;5005194;28;20499;-80
2022/06/11 14:28:23;;;;;;;8.73;3.20;;;;;;;;;;5003874;28;21011;-79
2022/06/11 14:31:06;;;;;;;11.40;3.07;;;;;;;;;;4979974;28;20470;-79
2022/06/11 14:33:34;;;;;;;10.30;3.00;;;;;;;;;;5004762;28;20469;-79
2022/06/11 14:36:02;;;;;;;9.80;4.20;;;;;;;;;;5005317;28;20508;-79
2022/06/11 14:38:41;;;;;;;9.60;4.03;;;;;;;;;;5003299;28;20508;-80
2022/06/11 14:41:19;;;;;;;8.73;3.47;;;;;;;;;;5002546;28;20482;-80
2022/06/11 14:44:10;;;;;;;7.00;2.53;;;;;;;;;;5003459;28;20543;-78